sensor_id;sensor_type;location;lat;lon;timestamp;P1;durP1;ratioP1;P2;durP2;ratioP2
26474;SDS011;14161;52.270;10.334;2023-11-19T00:02:11;1.33;;;0.70;;
26474;SDS011;14161;52.270;10.334;2023-11-19T00:04:37;1.25;;;0.82;;
26474;SDS011;14161;52.270;10.334;2023-11-19T00:07:06;0.80;;;0.70;;
26474;SDS011;14161;52.270;10.334;2023-11-19T00:09:33;0.93;;;0.60;;
26474;SDS011;14161;52.270;10.334;2023-11-19T00:11:59;0.40;;;0.40;;
26474;SDS011;14161;52.270;10.334;2023-11-19T00:14:33;0.35;;;0.35;;
26474;SDS011;14161;52.270;10.334;2023-11-19T00:16:59;0.40;;;0.40;;
26474;SDS011;14161;52.270;10.334;2023-11-19T00:19:25;0.38;;;0.38;;
26474;SDS011;14161;52.270;10.334;2023-11-19T00:21:51;0.32;;;0.32;;
26474;SDS011;14161;52.270;10.334;2023-11-19T00:24:17;0.40;;;0.30;;
26474;SDS011;14161;52.270;10.334;2023-11-19T00:26:43;0.60;;;0.32;;
26474;SDS011;14161;52.270;10.334;2023-11-19T00:29:08;0.43;;;0.30;;
26474;SDS011;14161;52.270;10.334;2023-11-19T00:31:34;0.30;;;0.22;;
26474;SDS011;14161;52.270;10.334;2023-11-19T00:34:00;0.57;;;0.30;;
26474;SDS011;14161;52.270;10.334;2023-11-19T00:36:26;0.20;;;0.20;;
26474;SDS011;14161;52.270;10.334;2023-11-19T00:38:52;1.00;;;0.30;;
26474;SDS011;14161;52.270;10.334;2023-11-19T00:41:18;0.20;;;0.20;;
26474;SDS011;14161;52.270;10.334;2023-11-19T00:43:43;0.52;;;0.43;;
26474;SDS011;14161;52.270;10.334;2023-11-19T00:46:10;0.50;;;0.35;;
26474;SDS011;14161;52.270;10.334;2023-11-19T00:48:39;0.40;;;0.40;;
26474;SDS011;14161;52.270;10.334;2023-11-19T00:51:04;0.30;;;0.30;;
26474;SDS011;14161;52.270;10.334;2023-11-19T00:53:30;0.30;;;0.30;;
26474;SDS011;14161;52.270;10.334;2023-11-19T00:55:57;0.30;;;0.30;;
26474;SDS011;14161;52.270;10.334;2023-11-19T00:58:22;0.45;;;0.40;;
26474;SDS011;14161;52.270;10.334;2023-11-19T01:00:48;1.48;;;0.50;;
26474;SDS011;14161;52.270;10.334;2023-11-19T01:03:13;0.28;;;0.28;;
26474;SDS011;14161;52.270;10.334;2023-11-19T01:05:41;0.40;;;0.40;;
26474;SDS011;14161;52.270;10.334;2023-11-19T01:08:06;0.65;;;0.40;;
26474;SDS011;14161;52.270;10.334;2023-11-19T01:10:32;0.30;;;0.30;;
26474;SDS011;14161;52.270;10.334;2023-11-19T01:12:57;0.95;;;0.60;;
26474;SDS011;14161;52.270;10.334;2023-11-19T01:15:23;0.93;;;0.40;;
26474;SDS011;14161;52.270;10.334;2023-11-19T01:17:49;0.98;;;0.60;;
26474;SDS011;14161;52.270;10.334;2023-11-19T01:20:14;0.40;;;0.35;;
26474;SDS011;14161;52.270;10.334;2023-11-19T01:22:40;0.40;;;0.40;;
26474;SDS011;14161;52.270;10.334;2023-11-19T01:25:06;0.77;;;0.60;;
26474;SDS011;14161;52.270;10.334;2023-11-19T01:27:32;0.40;;;0.40;;
26474;SDS011;14161;52.270;10.334;2023-11-19T01:30:00;0.47;;;0.47;;
26474;SDS011;14161;52.270;10.334;2023-11-19T01:32:28;1.02;;;0.60;;
26474;SDS011;14161;52.270;10.334;2023-11-19T01:34:54;0.68;;;0.52;;
26474;SDS011;14161;52.270;10.334;2023-11-19T01:37:20;0.40;;;0.40;;
26474;SDS011;14161;52.270;10.334;2023-11-19T01:39:45;1.10;;;0.60;;
26474;SDS011;14161;52.270;10.334;2023-11-19T01:42:11;0.50;;;0.50;;
26474;SDS011;14161;52.270;10.334;2023-11-19T01:44:39;0.60;;;0.50;;
26474;SDS011;14161;52.270;10.334;2023-11-19T01:47:04;0.45;;;0.43;;
26474;SDS011;14161;52.270;10.334;2023-11-19T01:49:31;1.10;;;0.57;;
26474;SDS011;14161;52.270;10.334;2023-11-19T01:51:57;0.60;;;0.60;;
26474;SDS011;14161;52.270;10.334;2023-11-19T01:54:24;0.65;;;0.47;;
26474;SDS011;14161;52.270;10.334;2023-11-19T01:56:49;1.33;;;0.60;;
26474;SDS011;14161;52.270;10.334;2023-11-19T01:59:15;0.65;;;0.65;;
26474;SDS011;14161;52.270;10.334;2023-11-19T02:01:41;0.60;;;0.60;;
26474;SDS011;14161;52.270;10.334;2023-11-19T02:04:07;0.63;;;0.63;;
26474;SDS011;14161;52.270;10.334;2023-11-19T02:06:33;1.00;;;0.90;;
26474;SDS011;14161;52.270;10.334;2023-11-19T02:08:59;0.90;;;0.73;;
26474;SDS011;14161;52.270;10.334;2023-11-19T02:11:25;1.05;;;0.80;;
26474;SDS011;14161;52.270;10.334;2023-11-19T02:13:54;1.08;;;0.90;;
26474;SDS011;14161;52.270;10.334;2023-11-19T02:16:21;0.70;;;0.70;;
26474;SDS011;14161;52.270;10.334;2023-11-19T02:18:46;0.60;;;0.60;;
26474;SDS011;14161;52.270;10.334;2023-11-19T02:21:12;0.88;;;0.60;;
26474;SDS011;14161;52.270;10.334;2023-11-19T02:23:40;0.65;;;0.65;;
26474;SDS011;14161;52.270;10.334;2023-11-19T02:26:09;0.47;;;0.47;;
26474;SDS011;14161;52.270;10.334;2023-11-19T02:28:39;0.70;;;0.70;;
26474;SDS011;14161;52.270;10.334;2023-11-19T02:31:08;0.30;;;0.30;;
26474;SDS011;14161;52.270;10.334;2023-11-19T02:33:37;0.80;;;0.60;;
26474;SDS011;14161;52.270;10.334;2023-11-19T02:36:03;0.65;;;0.50;;
26474;SDS011;14161;52.270;10.334;2023-11-19T02:38:30;0.73;;;0.73;;
26474;SDS011;14161;52.270;10.334;2023-11-19T02:40:56;0.65;;;0.60;;
26474;SDS011;14161;52.270;10.334;2023-11-19T02:43:22;1.90;;;0.45;;
26474;SDS011;14161;52.270;10.334;2023-11-19T02:45:48;0.93;;;0.70;;
26474;SDS011;14161;52.270;10.334;2023-11-19T02:48:13;0.60;;;0.60;;
26474;SDS011;14161;52.270;10.334;2023-11-19T02:50:40;1.63;;;0.73;;
26474;SDS011;14161;52.270;10.334;2023-11-19T02:53:06;0.80;;;0.60;;
26474;SDS011;14161;52.270;10.334;2023-11-19T02:55:32;1.20;;;0.60;;
26474;SDS011;14161;52.270;10.334;2023-11-19T02:58:02;0.40;;;0.40;;
26474;SDS011;14161;52.270;10.334;2023-11-19T03:00:34;0.75;;;0.50;;
26474;SDS011;14161;52.270;10.334;2023-11-19T03:03:02;0.40;;;0.40;;
26474;SDS011;14161;52.270;10.334;2023-11-19T03:05:46;0.57;;;0.45;;
26474;SDS011;14161;52.270;10.334;2023-11-19T03:08:12;0.50;;;0.50;;
26474;SDS011;14161;52.270;10.334;2023-11-19T03:10:37;0.60;;;0.57;;
26474;SDS011;14161;52.270;10.334;2023-11-19T03:13:04;0.40;;;0.40;;
26474;SDS011;14161;52.270;10.334;2023-11-19T03:15:29;0.40;;;0.40;;
26474;SDS011;14161;52.270;10.334;2023-11-19T03:17:55;0.50;;;0.50;;
26474;SDS011;14161;52.270;10.334;2023-11-19T03:20:20;0.38;;;0.22;;
26474;SDS011;14161;52.270;10.334;2023-11-19T03:22:46;0.40;;;0.40;;
26474;SDS011;14161;52.270;10.334;2023-11-19T03:25:11;0.52;;;0.52;;
26474;SDS011;14161;52.270;10.334;2023-11-19T03:27:38;0.47;;;0.47;;
26474;SDS011;14161;52.270;10.334;2023-11-19T03:30:07;3.13;;;0.43;;
26474;SDS011;14161;52.270;10.334;2023-11-19T03:32:34;2.65;;;0.60;;
26474;SDS011;14161;52.270;10.334;2023-11-19T03:35:01;0.60;;;0.60;;
26474;SDS011;14161;52.270;10.334;2023-11-19T03:37:27;0.63;;;0.60;;
26474;SDS011;14161;52.270;10.334;2023-11-19T03:39:59;1.20;;;0.70;;
26474;SDS011;14161;52.270;10.334;2023-11-19T03:42:25;0.80;;;0.80;;
26474;SDS011;14161;52.270;10.334;2023-11-19T03:44:52;1.75;;;0.73;;
26474;SDS011;14161;52.270;10.334;2023-11-19T03:47:17;0.55;;;0.55;;
26474;SDS011;14161;52.270;10.334;2023-11-19T03:49:46;0.60;;;0.60;;
26474;SDS011;14161;52.270;10.334;2023-11-19T03:52:15;0.68;;;0.52;;
26474;SDS011;14161;52.270;10.334;2023-11-19T03:54:42;0.60;;;0.60;;
26474;SDS011;14161;52.270;10.334;2023-11-19T03:57:07;0.60;;;0.60;;
26474;SDS011;14161;52.270;10.334;2023-11-19T03:59:37;0.68;;;0.68;;
26474;SDS011;14161;52.270;10.334;2023-11-19T04:02:02;0.95;;;0.80;;
26474;SDS011;14161;52.270;10.334;2023-11-19T04:04:28;0.60;;;0.60;;
26474;SDS011;14161;52.270;10.334;2023-11-19T04:06:57;0.63;;;0.63;;
26474;SDS011;14161;52.270;10.334;2023-11-19T04:09:23;0.60;;;0.60;;
26474;SDS011;14161;52.270;10.334;2023-11-19T04:11:48;0.70;;;0.60;;
26474;SDS011;14161;52.270;10.334;2023-11-19T04:14:14;0.73;;;0.70;;
26474;SDS011;14161;52.270;10.334;2023-11-19T04:16:40;0.60;;;0.50;;
26474;SDS011;14161;52.270;10.334;2023-11-19T04:19:06;0.77;;;0.63;;
26474;SDS011;14161;52.270;10.334;2023-11-19T04:21:32;0.90;;;0.60;;
26474;SDS011;14161;52.270;10.334;2023-11-19T04:23:58;3.08;;;0.90;;
26474;SDS011;14161;52.270;10.334;2023-11-19T04:26:24;0.70;;;0.60;;
26474;SDS011;14161;52.270;10.334;2023-11-19T04:28:49;2.08;;;0.93;;
26474;SDS011;14161;52.270;10.334;2023-11-19T04:31:15;0.90;;;0.77;;
26474;SDS011;14161;52.270;10.334;2023-11-19T04:33:41;1.35;;;0.80;;
26474;SDS011;14161;52.270;10.334;2023-11-19T04:36:07;1.33;;;0.80;;
26474;SDS011;14161;52.270;10.334;2023-11-19T04:38:33;1.40;;;0.90;;
26474;SDS011;14161;52.270;10.334;2023-11-19T04:40:59;1.13;;;0.80;;
26474;SDS011;14161;52.270;10.334;2023-11-19T04:43:25;0.88;;;0.88;;
26474;SDS011;14161;52.270;10.334;2023-11-19T04:45:53;0.80;;;0.80;;
26474;SDS011;14161;52.270;10.334;2023-11-19T04:48:19;2.55;;;1.00;;
26474;SDS011;14161;52.270;10.334;2023-11-19T04:50:44;0.98;;;0.90;;
26474;SDS011;14161;52.270;10.334;2023-11-19T04:53:10;0.90;;;0.75;;
26474;SDS011;14161;52.270;10.334;2023-11-19T04:55:35;0.90;;;0.90;;
26474;SDS011;14161;52.270;10.334;2023-11-19T04:58:01;1.10;;;1.00;;
26474;SDS011;14161;52.270;10.334;2023-11-19T05:00:26;2.28;;;1.30;;
26474;SDS011;14161;52.270;10.334;2023-11-19T05:02:51;1.23;;;1.13;;
26474;SDS011;14161;52.270;10.334;2023-11-19T05:05:20;1.38;;;1.05;;
26474;SDS011;14161;52.270;10.334;2023-11-19T05:07:45;1.50;;;1.40;;
26474;SDS011;14161;52.270;10.334;2023-11-19T05:10:11;1.50;;;1.40;;
26474;SDS011;14161;52.270;10.334;2023-11-19T05:12:37;2.30;;;1.50;;
26474;SDS011;14161;52.270;10.334;2023-11-19T05:15:02;2.75;;;1.58;;
26474;SDS011;14161;52.270;10.334;2023-11-19T05:17:28;2.22;;;1.50;;
26474;SDS011;14161;52.270;10.334;2023-11-19T05:19:53;2.15;;;1.48;;
26474;SDS011;14161;52.270;10.334;2023-11-19T05:22:19;1.88;;;1.40;;
26474;SDS011;14161;52.270;10.334;2023-11-19T05:24:45;3.92;;;1.73;;
26474;SDS011;14161;52.270;10.334;2023-11-19T05:27:13;2.10;;;1.60;;
26474;SDS011;14161;52.270;10.334;2023-11-19T05:29:39;2.13;;;1.70;;
26474;SDS011;14161;52.270;10.334;2023-11-19T05:32:06;1.58;;;1.48;;
26474;SDS011;14161;52.270;10.334;2023-11-19T05:34:32;2.97;;;1.88;;
26474;SDS011;14161;52.270;10.334;2023-11-19T05:36:57;1.33;;;1.23;;
26474;SDS011;14161;52.270;10.334;2023-11-19T05:39:23;1.88;;;1.50;;
26474;SDS011;14161;52.270;10.334;2023-11-19T05:41:49;2.40;;;1.60;;
26474;SDS011;14161;52.270;10.334;2023-11-19T05:44:14;2.58;;;1.40;;
26474;SDS011;14161;52.270;10.334;2023-11-19T05:46:40;1.30;;;1.20;;
26474;SDS011;14161;52.270;10.334;2023-11-19T05:49:11;1.70;;;1.48;;
26474;SDS011;14161;52.270;10.334;2023-11-19T05:51:37;1.45;;;1.10;;
26474;SDS011;14161;52.270;10.334;2023-11-19T05:54:06;1.35;;;1.25;;
26474;SDS011;14161;52.270;10.334;2023-11-19T05:56:33;4.35;;;1.27;;
26474;SDS011;14161;52.270;10.334;2023-11-19T05:58:59;1.67;;;1.25;;
26474;SDS011;14161;52.270;10.334;2023-11-19T06:01:32;3.03;;;1.27;;
26474;SDS011;14161;52.270;10.334;2023-11-19T06:04:01;1.23;;;1.15;;
26474;SDS011;14161;52.270;10.334;2023-11-19T06:06:28;2.25;;;1.50;;
26474;SDS011;14161;52.270;10.334;2023-11-19T06:08:56;2.28;;;1.30;;
26474;SDS011;14161;52.270;10.334;2023-11-19T06:11:22;2.58;;;1.40;;
26474;SDS011;14161;52.270;10.334;2023-11-19T06:13:47;1.80;;;1.42;;
26474;SDS011;14161;52.270;10.334;2023-11-19T06:16:16;3.17;;;1.50;;
26474;SDS011;14161;52.270;10.334;2023-11-19T06:18:42;3.00;;;1.40;;
26474;SDS011;14161;52.270;10.334;2023-11-19T06:21:09;3.33;;;1.58;;
26474;SDS011;14161;52.270;10.334;2023-11-19T06:23:35;1.33;;;1.23;;
26474;SDS011;14161;52.270;10.334;2023-11-19T06:26:03;3.40;;;1.55;;
26474;SDS011;14161;52.270;10.334;2023-11-19T06:28:30;2.67;;;1.60;;
26474;SDS011;14161;52.270;10.334;2023-11-19T06:30:56;3.38;;;1.73;;
26474;SDS011;14161;52.270;10.334;2023-11-19T06:33:23;3.33;;;1.90;;
26474;SDS011;14161;52.270;10.334;2023-11-19T06:35:49;4.60;;;1.90;;
26474;SDS011;14161;52.270;10.334;2023-11-19T06:38:14;6.30;;;2.60;;
26474;SDS011;14161;52.270;10.334;2023-11-19T06:40:40;6.28;;;2.22;;
26474;SDS011;14161;52.270;10.334;2023-11-19T06:43:06;2.30;;;1.80;;
26474;SDS011;14161;52.270;10.334;2023-11-19T06:45:33;3.53;;;2.20;;
26474;SDS011;14161;52.270;10.334;2023-11-19T06:48:02;4.53;;;1.95;;
26474;SDS011;14161;52.270;10.334;2023-11-19T06:50:32;5.50;;;2.10;;
26474;SDS011;14161;52.270;10.334;2023-11-19T06:52:58;5.57;;;1.95;;
26474;SDS011;14161;52.270;10.334;2023-11-19T06:55:24;7.03;;;2.63;;
26474;SDS011;14161;52.270;10.334;2023-11-19T06:57:49;6.32;;;2.72;;
26474;SDS011;14161;52.270;10.334;2023-11-19T07:00:15;7.50;;;3.20;;
26474;SDS011;14161;52.270;10.334;2023-11-19T07:02:41;8.48;;;3.08;;
26474;SDS011;14161;52.270;10.334;2023-11-19T07:05:07;9.82;;;3.50;;
26474;SDS011;14161;52.270;10.334;2023-11-19T07:07:33;8.80;;;2.80;;
26474;SDS011;14161;52.270;10.334;2023-11-19T07:09:58;12.98;;;3.58;;
26474;SDS011;14161;52.270;10.334;2023-11-19T07:12:24;8.88;;;3.08;;
26474;SDS011;14161;52.270;10.334;2023-11-19T07:14:53;5.00;;;2.35;;
26474;SDS011;14161;52.270;10.334;2023-11-19T07:17:20;6.10;;;2.13;;
26474;SDS011;14161;52.270;10.334;2023-11-19T07:19:46;14.45;;;2.78;;
26474;SDS011;14161;52.270;10.334;2023-11-19T07:22:11;9.55;;;3.20;;
26474;SDS011;14161;52.270;10.334;2023-11-19T07:24:38;7.50;;;3.22;;
26474;SDS011;14161;52.270;10.334;2023-11-19T07:27:05;11.88;;;2.97;;
26474;SDS011;14161;52.270;10.334;2023-11-19T07:29:31;14.27;;;3.35;;
26474;SDS011;14161;52.270;10.334;2023-11-19T07:31:57;8.85;;;2.92;;
26474;SDS011;14161;52.270;10.334;2023-11-19T07:34:22;9.13;;;3.35;;
26474;SDS011;14161;52.270;10.334;2023-11-19T07:36:48;12.15;;;3.38;;
26474;SDS011;14161;52.270;10.334;2023-11-19T07:39:14;15.02;;;3.70;;
26474;SDS011;14161;52.270;10.334;2023-11-19T07:41:39;15.90;;;3.72;;
26474;SDS011;14161;52.270;10.334;2023-11-19T07:44:05;20.65;;;4.30;;
26474;SDS011;14161;52.270;10.334;2023-11-19T07:46:32;11.35;;;3.15;;
26474;SDS011;14161;52.270;10.334;2023-11-19T07:48:58;18.40;;;5.03;;
26474;SDS011;14161;52.270;10.334;2023-11-19T07:51:24;17.45;;;4.65;;
26474;SDS011;14161;52.270;10.334;2023-11-19T07:53:49;15.43;;;4.30;;
26474;SDS011;14161;52.270;10.334;2023-11-19T07:56:18;15.98;;;3.55;;
26474;SDS011;14161;52.270;10.334;2023-11-19T07:58:44;16.75;;;4.35;;
26474;SDS011;14161;52.270;10.334;2023-11-19T08:01:13;10.90;;;3.47;;
26474;SDS011;14161;52.270;10.334;2023-11-19T08:03:40;13.25;;;3.63;;
26474;SDS011;14161;52.270;10.334;2023-11-19T08:06:06;11.15;;;4.03;;
26474;SDS011;14161;52.270;10.334;2023-11-19T08:08:32;14.85;;;3.60;;
26474;SDS011;14161;52.270;10.334;2023-11-19T08:10:58;17.35;;;4.35;;
26474;SDS011;14161;52.270;10.334;2023-11-19T08:13:24;12.95;;;3.78;;
26474;SDS011;14161;52.270;10.334;2023-11-19T08:15:50;11.95;;;3.90;;
26474;SDS011;14161;52.270;10.334;2023-11-19T08:18:16;14.85;;;3.95;;
26474;SDS011;14161;52.270;10.334;2023-11-19T08:20:43;14.15;;;3.47;;
26474;SDS011;14161;52.270;10.334;2023-11-19T08:23:09;13.98;;;3.88;;
26474;SDS011;14161;52.270;10.334;2023-11-19T08:25:35;18.20;;;4.22;;
26474;SDS011;14161;52.270;10.334;2023-11-19T08:28:00;15.73;;;3.67;;
26474;SDS011;14161;52.270;10.334;2023-11-19T08:30:26;16.25;;;3.78;;
26474;SDS011;14161;52.270;10.334;2023-11-19T08:32:52;13.60;;;3.90;;
26474;SDS011;14161;52.270;10.334;2023-11-19T08:35:17;13.13;;;3.47;;
26474;SDS011;14161;52.270;10.334;2023-11-19T08:37:43;19.73;;;4.45;;
26474;SDS011;14161;52.270;10.334;2023-11-19T08:40:10;18.52;;;4.30;;
26474;SDS011;14161;52.270;10.334;2023-11-19T08:42:37;17.75;;;3.75;;
26474;SDS011;14161;52.270;10.334;2023-11-19T08:45:04;21.55;;;4.53;;
26474;SDS011;14161;52.270;10.334;2023-11-19T08:47:30;12.80;;;4.45;;
26474;SDS011;14161;52.270;10.334;2023-11-19T08:49:55;20.92;;;4.60;;
26474;SDS011;14161;52.270;10.334;2023-11-19T08:52:21;12.57;;;3.63;;
26474;SDS011;14161;52.270;10.334;2023-11-19T08:54:46;18.08;;;4.35;;
26474;SDS011;14161;52.270;10.334;2023-11-19T08:57:12;16.90;;;3.67;;
26474;SDS011;14161;52.270;10.334;2023-11-19T08:59:37;12.10;;;3.38;;
26474;SDS011;14161;52.270;10.334;2023-11-19T09:02:04;16.92;;;3.35;;
26474;SDS011;14161;52.270;10.334;2023-11-19T09:04:30;15.35;;;3.75;;
26474;SDS011;14161;52.270;10.334;2023-11-19T09:06:57;15.35;;;4.20;;
26474;SDS011;14161;52.270;10.334;2023-11-19T09:09:23;18.20;;;4.18;;
26474;SDS011;14161;52.270;10.334;2023-11-19T09:11:49;16.55;;;4.35;;
26474;SDS011;14161;52.270;10.334;2023-11-19T09:14:14;20.52;;;5.13;;
26474;SDS011;14161;52.270;10.334;2023-11-19T09:16:40;9.05;;;3.00;;
26474;SDS011;14161;52.270;10.334;2023-11-19T09:19:06;22.23;;;4.07;;
26474;SDS011;14161;52.270;10.334;2023-11-19T09:21:31;15.43;;;4.13;;
26474;SDS011;14161;52.270;10.334;2023-11-19T09:23:58;13.77;;;3.55;;
26474;SDS011;14161;52.270;10.334;2023-11-19T09:26:23;23.25;;;4.85;;
26474;SDS011;14161;52.270;10.334;2023-11-19T09:28:49;22.45;;;4.82;;
26474;SDS011;14161;52.270;10.334;2023-11-19T09:31:15;16.17;;;4.15;;
26474;SDS011;14161;52.270;10.334;2023-11-19T09:33:41;20.30;;;4.22;;
26474;SDS011;14161;52.270;10.334;2023-11-19T09:36:06;20.83;;;4.10;;
26474;SDS011;14161;52.270;10.334;2023-11-19T09:38:32;10.95;;;3.25;;
26474;SDS011;14161;52.270;10.334;2023-11-19T09:41:00;11.38;;;3.13;;
26474;SDS011;14161;52.270;10.334;2023-11-19T09:43:27;20.50;;;4.25;;
26474;SDS011;14161;52.270;10.334;2023-11-19T09:45:53;19.50;;;4.40;;
26474;SDS011;14161;52.270;10.334;2023-11-19T09:48:20;18.85;;;4.13;;
26474;SDS011;14161;52.270;10.334;2023-11-19T09:50:49;16.17;;;4.38;;
26474;SDS011;14161;52.270;10.334;2023-11-19T09:53:16;15.02;;;3.75;;
26474;SDS011;14161;52.270;10.334;2023-11-19T09:55:43;21.52;;;4.50;;
26474;SDS011;14161;52.270;10.334;2023-11-19T09:58:11;15.82;;;3.50;;
26474;SDS011;14161;52.270;10.334;2023-11-19T10:00:38;26.20;;;4.88;;
26474;SDS011;14161;52.270;10.334;2023-11-19T10:03:04;22.98;;;5.55;;
26474;SDS011;14161;52.270;10.334;2023-11-19T10:05:34;17.67;;;3.80;;
26474;SDS011;14161;52.270;10.334;2023-11-19T10:08:01;19.00;;;3.95;;
26474;SDS011;14161;52.270;10.334;2023-11-19T10:10:28;19.80;;;4.72;;
26474;SDS011;14161;52.270;10.334;2023-11-19T10:12:54;21.52;;;4.50;;
26474;SDS011;14161;52.270;10.334;2023-11-19T10:15:22;19.50;;;4.50;;
26474;SDS011;14161;52.270;10.334;2023-11-19T10:17:50;21.30;;;4.47;;
26474;SDS011;14161;52.270;10.334;2023-11-19T10:20:17;28.35;;;6.03;;
26474;SDS011;14161;52.270;10.334;2023-11-19T10:22:43;14.82;;;3.92;;
26474;SDS011;14161;52.270;10.334;2023-11-19T10:25:22;18.90;;;4.53;;
26474;SDS011;14161;52.270;10.334;2023-11-19T10:27:53;21.70;;;4.95;;
26474;SDS011;14161;52.270;10.334;2023-11-19T10:30:20;14.73;;;3.42;;
26474;SDS011;14161;52.270;10.334;2023-11-19T10:35:28;23.60;;;4.88;;
26474;SDS011;14161;52.270;10.334;2023-11-19T10:37:53;20.10;;;5.20;;
26474;SDS011;14161;52.270;10.334;2023-11-19T10:40:19;13.63;;;3.38;;
26474;SDS011;14161;52.270;10.334;2023-11-19T10:42:45;15.82;;;3.80;;
26474;SDS011;14161;52.270;10.334;2023-11-19T10:45:24;23.92;;;5.55;;
26474;SDS011;14161;52.270;10.334;2023-11-19T10:47:51;26.23;;;4.97;;
26474;SDS011;14161;52.270;10.334;2023-11-19T10:50:17;15.25;;;3.30;;
26474;SDS011;14161;52.270;10.334;2023-11-19T10:52:44;16.35;;;3.20;;
26474;SDS011;14161;52.270;10.334;2023-11-19T10:55:12;21.50;;;4.10;;
26474;SDS011;14161;52.270;10.334;2023-11-19T10:57:40;21.88;;;4.07;;
26474;SDS011;14161;52.270;10.334;2023-11-19T11:00:09;12.68;;;3.50;;
26474;SDS011;14161;52.270;10.334;2023-11-19T11:02:38;18.15;;;3.97;;
26474;SDS011;14161;52.270;10.334;2023-11-19T11:05:07;14.88;;;3.83;;
26474;SDS011;14161;52.270;10.334;2023-11-19T11:07:33;14.07;;;3.45;;
26474;SDS011;14161;52.270;10.334;2023-11-19T11:09:59;15.40;;;3.40;;
26474;SDS011;14161;52.270;10.334;2023-11-19T11:12:25;15.05;;;3.38;;
26474;SDS011;14161;52.270;10.334;2023-11-19T11:14:51;14.95;;;3.63;;
26474;SDS011;14161;52.270;10.334;2023-11-19T11:17:18;13.00;;;3.08;;
26474;SDS011;14161;52.270;10.334;2023-11-19T11:19:45;14.07;;;3.58;;
26474;SDS011;14161;52.270;10.334;2023-11-19T11:22:11;21.33;;;3.95;;
26474;SDS011;14161;52.270;10.334;2023-11-19T11:27:27;13.32;;;3.88;;
26474;SDS011;14161;52.270;10.334;2023-11-19T11:30:01;15.27;;;3.60;;
26474;SDS011;14161;52.270;10.334;2023-11-19T11:33:06;12.55;;;3.92;;
26474;SDS011;14161;52.270;10.334;2023-11-19T11:38:15;15.95;;;4.47;;
26474;SDS011;14161;52.270;10.334;2023-11-19T11:41:08;14.73;;;3.85;;
26474;SDS011;14161;52.270;10.334;2023-11-19T11:43:44;18.42;;;3.47;;
26474;SDS011;14161;52.270;10.334;2023-11-19T11:49:02;11.45;;;3.55;;
26474;SDS011;14161;52.270;10.334;2023-11-19T11:54:26;12.63;;;3.33;;
26474;SDS011;14161;52.270;10.334;2023-11-19T11:57:02;18.40;;;3.65;;
26474;SDS011;14161;52.270;10.334;2023-11-19T12:02:07;18.65;;;4.75;;
26474;SDS011;14161;52.270;10.334;2023-11-19T12:04:36;19.67;;;5.00;;
26474;SDS011;14161;52.270;10.334;2023-11-19T12:07:11;19.52;;;4.70;;
26474;SDS011;14161;52.270;10.334;2023-11-19T12:09:41;16.35;;;4.30;;
26474;SDS011;14161;52.270;10.334;2023-11-19T12:17:48;17.98;;;4.50;;
26474;SDS011;14161;52.270;10.334;2023-11-19T12:20:14;25.33;;;6.18;;
26474;SDS011;14161;52.270;10.334;2023-11-19T12:22:42;19.55;;;4.47;;
26474;SDS011;14161;52.270;10.334;2023-11-19T12:25:09;14.75;;;4.13;;
26474;SDS011;14161;52.270;10.334;2023-11-19T12:27:36;28.08;;;6.03;;
26474;SDS011;14161;52.270;10.334;2023-11-19T12:30:03;22.98;;;5.32;;
26474;SDS011;14161;52.270;10.334;2023-11-19T12:32:44;19.90;;;4.00;;
26474;SDS011;14161;52.270;10.334;2023-11-19T12:35:11;19.17;;;4.30;;
26474;SDS011;14161;52.270;10.334;2023-11-19T12:40:16;22.60;;;5.45;;
26474;SDS011;14161;52.270;10.334;2023-11-19T12:42:43;18.17;;;3.88;;
26474;SDS011;14161;52.270;10.334;2023-11-19T12:45:09;18.25;;;4.20;;
26474;SDS011;14161;52.270;10.334;2023-11-19T12:47:40;20.67;;;4.80;;
26474;SDS011;14161;52.270;10.334;2023-11-19T12:50:22;25.98;;;5.03;;
26474;SDS011;14161;52.270;10.334;2023-11-19T12:52:56;17.42;;;4.35;;
26474;SDS011;14161;52.270;10.334;2023-11-19T12:55:26;17.92;;;3.95;;
26474;SDS011;14161;52.270;10.334;2023-11-19T12:57:53;22.83;;;4.28;;
26474;SDS011;14161;52.270;10.334;2023-11-19T13:00:20;21.75;;;5.15;;
26474;SDS011;14161;52.270;10.334;2023-11-19T13:07:46;22.63;;;7.50;;
26474;SDS011;14161;52.270;10.334;2023-11-19T13:10:11;18.17;;;5.47;;
26474;SDS011;14161;52.270;10.334;2023-11-19T13:12:37;23.92;;;5.85;;
26474;SDS011;14161;52.270;10.334;2023-11-19T13:15:03;20.02;;;5.55;;
26474;SDS011;14161;52.270;10.334;2023-11-19T13:17:28;29.27;;;7.35;;
26474;SDS011;14161;52.270;10.334;2023-11-19T13:19:54;23.30;;;8.25;;
26474;SDS011;14161;52.270;10.334;2023-11-19T13:22:21;20.98;;;6.20;;
26474;SDS011;14161;52.270;10.334;2023-11-19T13:24:48;16.45;;;3.95;;
26474;SDS011;14161;52.270;10.334;2023-11-19T13:27:15;16.73;;;4.50;;
26474;SDS011;14161;52.270;10.334;2023-11-19T13:29:40;21.02;;;4.22;;
26474;SDS011;14161;52.270;10.334;2023-11-19T13:32:06;24.10;;;4.47;;
26474;SDS011;14161;52.270;10.334;2023-11-19T13:34:33;16.50;;;3.72;;
26474;SDS011;14161;52.270;10.334;2023-11-19T13:36:59;21.73;;;3.78;;
26474;SDS011;14161;52.270;10.334;2023-11-19T13:39:24;14.43;;;3.70;;
26474;SDS011;14161;52.270;10.334;2023-11-19T13:41:50;11.65;;;3.42;;
26474;SDS011;14161;52.270;10.334;2023-11-19T13:44:16;12.93;;;3.85;;
26474;SDS011;14161;52.270;10.334;2023-11-19T13:46:44;13.77;;;3.50;;
26474;SDS011;14161;52.270;10.334;2023-11-19T13:49:10;12.60;;;3.20;;
26474;SDS011;14161;52.270;10.334;2023-11-19T13:51:36;19.40;;;4.00;;
26474;SDS011;14161;52.270;10.334;2023-11-19T13:54:03;22.42;;;4.47;;
26474;SDS011;14161;52.270;10.334;2023-11-19T13:56:28;17.98;;;4.45;;
26474;SDS011;14161;52.270;10.334;2023-11-19T13:58:54;14.15;;;3.55;;
26474;SDS011;14161;52.270;10.334;2023-11-19T14:01:19;17.80;;;4.82;;
26474;SDS011;14161;52.270;10.334;2023-11-19T14:03:45;14.18;;;3.70;;
26474;SDS011;14161;52.270;10.334;2023-11-19T14:06:11;16.83;;;4.00;;
26474;SDS011;14161;52.270;10.334;2023-11-19T14:08:38;14.80;;;3.58;;
26474;SDS011;14161;52.270;10.334;2023-11-19T14:11:04;19.30;;;4.20;;
26474;SDS011;14161;52.270;10.334;2023-11-19T14:13:30;18.10;;;4.00;;
26474;SDS011;14161;52.270;10.334;2023-11-19T14:15:55;13.68;;;3.35;;
26474;SDS011;14161;52.270;10.334;2023-11-19T14:18:21;23.63;;;4.10;;
26474;SDS011;14161;52.270;10.334;2023-11-19T14:20:46;13.35;;;3.45;;
26474;SDS011;14161;52.270;10.334;2023-11-19T14:23:12;15.55;;;4.05;;
26474;SDS011;14161;52.270;10.334;2023-11-19T14:25:37;16.05;;;4.32;;
26474;SDS011;14161;52.270;10.334;2023-11-19T14:28:03;10.60;;;3.40;;
26474;SDS011;14161;52.270;10.334;2023-11-19T14:30:28;16.70;;;3.85;;
26474;SDS011;14161;52.270;10.334;2023-11-19T14:32:54;19.13;;;4.35;;
26474;SDS011;14161;52.270;10.334;2023-11-19T14:35:19;19.15;;;4.82;;
26474;SDS011;14161;52.270;10.334;2023-11-19T14:37:45;25.75;;;5.45;;
26474;SDS011;14161;52.270;10.334;2023-11-19T14:40:11;17.27;;;4.68;;
26474;SDS011;14161;52.270;10.334;2023-11-19T14:42:37;13.02;;;3.45;;
26474;SDS011;14161;52.270;10.334;2023-11-19T14:45:04;19.48;;;4.38;;
26474;SDS011;14161;52.270;10.334;2023-11-19T14:47:30;15.52;;;3.92;;
26474;SDS011;14161;52.270;10.334;2023-11-19T14:49:56;15.75;;;3.90;;
26474;SDS011;14161;52.270;10.334;2023-11-19T14:52:21;16.80;;;4.00;;
26474;SDS011;14161;52.270;10.334;2023-11-19T14:54:47;14.00;;;4.38;;
26474;SDS011;14161;52.270;10.334;2023-11-19T14:57:13;19.85;;;4.95;;